createdAt,value
2022-12-25T00:00:26.134Z,1.27
2022-12-25T00:10:48.245Z,1.60
2022-12-25T00:15:50.823Z,1.98
2022-12-25T00:26:26.402Z,2.28
2022-12-25T00:31:29.172Z,2.65
2022-12-25T00:36:36.254Z,2.70
2022-12-25T00:42:00.698Z,2.95
2022-12-25T00:47:03.862Z,1.80
2022-12-25T00:52:06.899Z,2.03
2022-12-25T00:57:09.442Z,1.88
2022-12-25T01:02:24.386Z,1.73
2022-12-25T01:07:27.942Z,1.83
2022-12-25T01:12:31.959Z,1.17
2022-12-25T01:17:34.945Z,1.20
2022-12-25T01:22:37.515Z,1.45
2022-12-25T01:27:41.689Z,1.48
2022-12-25T01:32:44.175Z,2.42
2022-12-25T01:37:46.709Z,1.20
2022-12-25T01:42:49.158Z,1.05
2022-12-25T01:47:51.900Z,0.98
2022-12-25T01:52:55.568Z,1.40
2022-12-25T02:08:22.478Z,1.02
2022-12-25T02:13:25.119Z,1.35
2022-12-25T02:18:46.091Z,1.08
2022-12-25T02:24:19.467Z,1.02
2022-12-25T02:30:02.517Z,1.02
2022-12-25T02:35:31.398Z,0.88
2022-12-25T02:40:48.046Z,1.02
2022-12-25T02:46:41.049Z,1.77
2022-12-25T02:57:59.036Z,1.05
2022-12-25T03:03:23.811Z,1.13
2022-12-25T03:08:34.972Z,1.38
2022-12-25T03:13:42.767Z,1.52
2022-12-25T03:18:46.082Z,1.45
2022-12-25T03:24:15.080Z,1.55
2022-12-25T03:29:37.460Z,1.50
2022-12-25T03:35:26.052Z,1.38
2022-12-25T03:41:16.249Z,1.65
2022-12-25T03:46:39.733Z,1.38
2022-12-25T03:52:01.459Z,1.27
2022-12-25T03:57:22.863Z,1.58
2022-12-25T04:02:44.040Z,2.25
2022-12-25T04:08:05.124Z,1.63
2022-12-25T04:13:25.954Z,1.38
2022-12-25T04:18:46.732Z,1.77
2022-12-25T04:24:07.651Z,2.40
2022-12-25T04:29:28.705Z,2.10
2022-12-25T04:34:49.484Z,1.83
2022-12-25T04:39:51.926Z,1.67
2022-12-25T04:44:54.394Z,2.22
2022-12-25T04:49:56.879Z,1.85
2022-12-25T04:54:59.386Z,2.15
2022-12-25T05:00:01.925Z,2.13
2022-12-25T05:05:05.790Z,2.65
2022-12-25T05:10:08.854Z,3.22
2022-12-25T05:15:11.591Z,3.83
2022-12-25T05:20:14.127Z,3.47
2022-12-25T05:30:36.108Z,3.65
2022-12-25T05:35:39.436Z,4.03
2022-12-25T05:40:41.963Z,3.17
2022-12-25T05:45:44.407Z,2.80
2022-12-25T05:50:46.857Z,2.85
2022-12-25T05:55:49.339Z,3.35
2022-12-25T06:00:51.865Z,3.13
2022-12-25T06:05:54.546Z,3.03
2022-12-25T06:10:57.051Z,2.75
2022-12-25T06:15:59.795Z,3.20
2022-12-25T06:21:05.877Z,3.35
2022-12-25T06:26:11.297Z,3.47
2022-12-25T06:31:17.655Z,3.63
2022-12-25T06:36:23.205Z,3.83
2022-12-25T06:41:27.733Z,3.40
2022-12-25T07:02:19.408Z,6.53
2022-12-25T07:07:23.894Z,6.95
2022-12-25T07:12:26.478Z,7.40
2022-12-25T07:17:29.001Z,7.75
2022-12-25T07:22:31.562Z,6.93
2022-12-25T07:27:34.014Z,7.45
2022-12-25T07:32:36.585Z,6.85
2022-12-25T07:37:38.990Z,8.65
2022-12-25T07:42:41.412Z,8.75
2022-12-25T07:53:03.883Z,9.60
2022-12-25T07:58:07.034Z,8.68
2022-12-25T08:03:10.055Z,9.23
2022-12-25T08:08:13.182Z,7.88
2022-12-25T08:13:15.697Z,8.52
2022-12-25T08:18:18.250Z,8.68
2022-12-25T08:23:20.713Z,8.43
2022-12-25T08:28:23.226Z,7.60
2022-12-25T08:33:25.761Z,7.72
2022-12-25T08:38:28.635Z,8.77
2022-12-25T08:48:51.113Z,12.77
2022-12-25T08:53:58.178Z,11.30
2022-12-25T08:59:00.677Z,10.23
2022-12-25T09:04:03.109Z,10.63
2022-12-25T09:09:05.723Z,12.18
2022-12-25T09:14:09.957Z,12.48
2022-12-25T09:19:12.455Z,11.35
2022-12-25T09:24:14.954Z,12.48
2022-12-25T09:29:18.283Z,14.30
2022-12-25T09:34:22.970Z,12.50
2022-12-25T09:39:25.393Z,11.32
2022-12-25T09:44:32.439Z,12.35
2022-12-25T09:49:47.865Z,14.10
2022-12-25T09:55:19.846Z,13.52
2022-12-25T10:00:35.539Z,15.65
2022-12-25T10:06:07.852Z,15.63
2022-12-25T10:12:02.477Z,14.38
2022-12-25T10:17:43.095Z,14.40
2022-12-25T10:22:49.900Z,18.08
2022-12-25T10:28:01.079Z,19.95
2022-12-25T10:33:03.769Z,20.35
2022-12-25T10:38:16.690Z,19.00
2022-12-25T10:43:39.190Z,20.08
2022-12-25T10:48:52.246Z,17.38
2022-12-25T10:53:54.739Z,12.75
2022-12-25T10:59:09.880Z,11.70
2022-12-25T11:04:25.673Z,10.88
2022-12-25T11:09:28.668Z,10.10
2022-12-25T11:14:31.178Z,10.48
2022-12-25T11:19:33.720Z,9.18
2022-12-25T11:24:36.307Z,9.05
2022-12-25T11:29:47.120Z,8.70
2022-12-25T11:34:51.260Z,8.93
2022-12-25T11:39:54.214Z,10.55
2022-12-25T11:45:15.038Z,10.10
2022-12-25T11:50:27.735Z,10.15
2022-12-25T11:55:38.890Z,9.13
2022-12-25T12:00:43.492Z,9.63
2022-12-25T12:06:07.433Z,10.60
2022-12-25T12:11:25.155Z,10.13
2022-12-25T12:16:27.897Z,10.50
2022-12-25T12:28:36.334Z,10.35
2022-12-25T12:35:21.800Z,10.30
2022-12-25T12:40:34.031Z,8.63
2022-12-25T12:53:10.779Z,9.30
2022-12-25T12:58:34.220Z,10.68
2022-12-25T13:03:49.317Z,14.35
2022-12-25T13:09:51.755Z,13.48
2022-12-25T13:15:30.384Z,14.82
2022-12-25T13:21:38.712Z,15.52
2022-12-25T13:27:58.814Z,13.63
2022-12-25T13:33:14.708Z,13.10
2022-12-25T13:38:37.740Z,15.27
2022-12-25T13:43:45.080Z,13.60
2022-12-25T13:49:04.878Z,15.98
2022-12-25T13:54:10.745Z,11.93
2022-12-25T13:59:18.565Z,9.63
2022-12-25T14:04:30.124Z,8.82
2022-12-25T14:09:33.284Z,9.77
2022-12-25T14:14:37.877Z,12.02
2022-12-25T14:19:43.779Z,10.30
2022-12-25T14:24:51.028Z,9.73
2022-12-25T14:29:58.970Z,12.35
2022-12-25T14:40:32.323Z,10.40
2022-12-25T14:51:15.811Z,9.27
2022-12-25T14:56:46.245Z,10.10
2022-12-25T15:07:38.908Z,9.68
2022-12-25T15:13:09.784Z,10.95
2022-12-25T15:18:53.787Z,10.15
2022-12-25T15:23:58.449Z,11.48
2022-12-25T15:29:52.272Z,11.07
2022-12-25T15:35:11.530Z,12.02
2022-12-25T15:41:09.645Z,12.10
2022-12-25T15:46:24.919Z,8.88
2022-12-25T15:58:08.549Z,8.80
2022-12-25T16:09:22.182Z,10.13
2022-12-25T16:14:39.380Z,8.38
2022-12-25T16:19:59.907Z,8.30
2022-12-25T16:25:21.913Z,7.38
2022-12-25T16:30:29.801Z,8.43
2022-12-25T16:35:54.766Z,7.40
2022-12-25T16:46:41.948Z,9.20
2022-12-25T16:52:33.846Z,7.53
2022-12-25T16:57:51.651Z,9.23
2022-12-25T17:03:03.816Z,10.63
2022-12-25T17:08:07.036Z,10.93
2022-12-25T17:13:09.947Z,9.80
2022-12-25T17:23:45.078Z,8.35
2022-12-25T17:28:52.643Z,8.88
2022-12-25T17:33:55.981Z,8.93
2022-12-25T17:44:32.150Z,6.82
2022-12-25T17:49:50.043Z,6.38
2022-12-25T17:54:56.078Z,6.10
2022-12-25T18:05:35.916Z,6.55
2022-12-25T18:11:11.711Z,6.97
2022-12-25T18:16:24.883Z,5.55
2022-12-25T18:21:51.912Z,6.95
2022-12-25T18:27:00.611Z,5.60
2022-12-25T18:32:10.058Z,4.90
2022-12-25T18:37:31.886Z,5.57
2022-12-25T18:43:03.239Z,5.95
2022-12-25T18:48:15.143Z,6.20
2022-12-25T18:53:23.541Z,7.50
2022-12-25T18:58:38.253Z,6.40
2022-12-25T19:03:49.282Z,6.13
2022-12-25T19:09:12.604Z,5.10
2022-12-25T19:14:22.508Z,5.00
2022-12-25T19:19:26.869Z,5.18
2022-12-25T19:24:33.011Z,4.40
2022-12-25T19:34:55.998Z,3.90
2022-12-25T19:40:07.363Z,4.85
2022-12-25T19:45:17.278Z,3.58
2022-12-25T19:50:22.775Z,3.97
2022-12-25T19:55:41.824Z,4.20
2022-12-25T20:01:09.908Z,5.22
2022-12-25T20:06:38.846Z,5.10
2022-12-25T20:11:44.460Z,7.85
2022-12-25T20:17:01.301Z,3.75
2022-12-25T20:22:06.002Z,3.70
2022-12-25T20:27:44.987Z,4.20
2022-12-25T20:33:06.987Z,3.65
2022-12-25T20:38:13.599Z,3.53
2022-12-25T20:43:38.844Z,3.65
2022-12-25T20:49:10.685Z,3.83
2022-12-25T20:54:20.321Z,3.85
2022-12-25T20:59:33.493Z,3.30
2022-12-25T21:04:40.109Z,3.53
2022-12-25T21:09:48.372Z,3.45
2022-12-25T21:15:07.817Z,2.97
2022-12-25T21:20:22.370Z,2.78
2022-12-25T21:25:34.034Z,3.53
2022-12-25T21:30:53.416Z,3.15
2022-12-25T21:36:12.128Z,2.53
2022-12-25T21:41:40.256Z,3.75
2022-12-25T21:47:14.191Z,3.95
2022-12-25T21:52:44.967Z,3.67
2022-12-25T21:57:54.246Z,3.65
2022-12-25T22:03:13.458Z,4.15
2022-12-25T22:08:16.378Z,3.05
2022-12-25T22:14:07.864Z,2.70
2022-12-25T22:19:36.189Z,3.28
2022-12-25T22:25:01.331Z,2.67
2022-12-25T22:35:50.709Z,3.60
2022-12-25T22:40:54.240Z,3.08
2022-12-25T22:46:05.982Z,2.58
2022-12-25T22:51:11.689Z,3.00
2022-12-25T23:01:39.465Z,4.68
2022-12-25T23:06:46.101Z,4.15
2022-12-25T23:12:00.284Z,5.50
2022-12-25T23:17:32.436Z,4.85
2022-12-25T23:29:04.294Z,4.07
2022-12-25T23:34:07.911Z,4.07
2022-12-25T23:39:15.184Z,3.80
2022-12-25T23:49:56.025Z,3.13
